Terminal Aerodrome Forecast
Issued by NWS

Current Version | Previous Version | Text Only | Print | Product List | Glossary Off
Versions: 1 2 3 4 5 6 7 8 9 10 11 12 13 14 15 16 17 18 19 20 21 22 23 24

000
FTUS41 KILN 241900 AAA
TAFLCK
TAF AMD
KLCK 241923Z 2419/2518 03010KT P6SM BKN060
     FM242300 02008KT P6SM SCT060
     FM250200 01004KT P6SM SKC
      TEMPO 2509/2511 5SM BR
     FM251500 19004KT P6SM SCT040=

USA.gov is the U.S. government's official web portal to all federal, state and local government web resources and services.